sensor_id;sensor_type;location;lat;lon;timestamp;P1;durP1;ratioP1;P2;durP2;ratioP2
21046;SDS011;10682;50.874;3.656;2024-01-15T00:00:00;7.53;;;2.83;;
21046;SDS011;10682;50.874;3.656;2024-01-15T00:02:27;5.33;;;2.93;;
21046;SDS011;10682;50.874;3.656;2024-01-15T00:04:54;4.97;;;2.77;;
21046;SDS011;10682;50.874;3.656;2024-01-15T00:07:21;4.30;;;2.83;;
21046;SDS011;10682;50.874;3.656;2024-01-15T00:09:49;7.20;;;2.97;;
21046;SDS011;10682;50.874;3.656;2024-01-15T00:12:16;6.00;;;2.77;;
21046;SDS011;10682;50.874;3.656;2024-01-15T00:14:43;6.67;;;3.20;;
21046;SDS011;10682;50.874;3.656;2024-01-15T00:17:10;7.57;;;3.00;;
21046;SDS011;10682;50.874;3.656;2024-01-15T00:19:40;5.37;;;2.90;;
21046;SDS011;10682;50.874;3.656;2024-01-15T00:22:09;4.80;;;2.90;;
21046;SDS011;10682;50.874;3.656;2024-01-15T00:24:37;6.00;;;2.87;;
21046;SDS011;10682;50.874;3.656;2024-01-15T00:30:35;6.13;;;3.23;;
21046;SDS011;10682;50.874;3.656;2024-01-15T00:35:48;4.90;;;3.20;;
21046;SDS011;10682;50.874;3.656;2024-01-15T00:38:15;5.37;;;3.10;;
21046;SDS011;10682;50.874;3.656;2024-01-15T00:40:43;7.10;;;2.67;;
21046;SDS011;10682;50.874;3.656;2024-01-15T00:43:10;5.53;;;2.63;;
21046;SDS011;10682;50.874;3.656;2024-01-15T00:45:37;8.03;;;2.97;;
21046;SDS011;10682;50.874;3.656;2024-01-15T00:48:04;9.10;;;2.97;;
21046;SDS011;10682;50.874;3.656;2024-01-15T00:50:32;6.63;;;2.93;;
21046;SDS011;10682;50.874;3.656;2024-01-15T00:52:59;6.57;;;2.57;;
21046;SDS011;10682;50.874;3.656;2024-01-15T00:55:28;4.50;;;2.90;;
21046;SDS011;10682;50.874;3.656;2024-01-15T00:57:55;7.00;;;3.20;;
21046;SDS011;10682;50.874;3.656;2024-01-15T01:00:22;6.93;;;3.10;;
21046;SDS011;10682;50.874;3.656;2024-01-15T01:02:50;9.03;;;3.30;;
21046;SDS011;10682;50.874;3.656;2024-01-15T01:05:17;7.13;;;3.30;;
21046;SDS011;10682;50.874;3.656;2024-01-15T01:07:44;6.90;;;3.50;;
21046;SDS011;10682;50.874;3.656;2024-01-15T01:10:13;6.57;;;3.07;;
21046;SDS011;10682;50.874;3.656;2024-01-15T01:12:40;6.43;;;3.47;;
21046;SDS011;10682;50.874;3.656;2024-01-15T01:15:09;7.77;;;3.73;;
21046;SDS011;10682;50.874;3.656;2024-01-15T01:17:36;7.23;;;3.33;;
21046;SDS011;10682;50.874;3.656;2024-01-15T01:20:06;6.30;;;3.53;;
21046;SDS011;10682;50.874;3.656;2024-01-15T01:22:36;7.07;;;3.73;;
21046;SDS011;10682;50.874;3.656;2024-01-15T01:25:03;7.60;;;3.40;;
21046;SDS011;10682;50.874;3.656;2024-01-15T01:27:30;6.37;;;3.43;;
21046;SDS011;10682;50.874;3.656;2024-01-15T01:29:58;5.20;;;3.17;;
21046;SDS011;10682;50.874;3.656;2024-01-15T01:32:25;7.77;;;3.20;;
21046;SDS011;10682;50.874;3.656;2024-01-15T01:34:52;8.37;;;3.87;;
21046;SDS011;10682;50.874;3.656;2024-01-15T01:37:19;8.07;;;3.30;;
21046;SDS011;10682;50.874;3.656;2024-01-15T01:39:46;6.33;;;3.30;;
21046;SDS011;10682;50.874;3.656;2024-01-15T01:42:13;7.87;;;3.30;;
21046;SDS011;10682;50.874;3.656;2024-01-15T01:44:41;7.07;;;4.13;;
21046;SDS011;10682;50.874;3.656;2024-01-15T01:47:08;7.67;;;3.83;;
21046;SDS011;10682;50.874;3.656;2024-01-15T01:49:35;6.13;;;3.93;;
21046;SDS011;10682;50.874;3.656;2024-01-15T01:52:05;7.60;;;3.60;;
21046;SDS011;10682;50.874;3.656;2024-01-15T01:54:33;9.13;;;3.67;;
21046;SDS011;10682;50.874;3.656;2024-01-15T01:57:02;6.50;;;3.40;;
21046;SDS011;10682;50.874;3.656;2024-01-15T01:59:30;6.60;;;3.73;;
21046;SDS011;10682;50.874;3.656;2024-01-15T02:02:00;7.67;;;3.43;;
21046;SDS011;10682;50.874;3.656;2024-01-15T02:04:31;8.53;;;3.40;;
21046;SDS011;10682;50.874;3.656;2024-01-15T02:06:59;12.13;;;3.10;;
21046;SDS011;10682;50.874;3.656;2024-01-15T02:12:43;8.17;;;3.43;;
21046;SDS011;10682;50.874;3.656;2024-01-15T02:15:18;9.50;;;3.20;;
21046;SDS011;10682;50.874;3.656;2024-01-15T02:17:58;6.70;;;3.40;;
21046;SDS011;10682;50.874;3.656;2024-01-15T02:20:27;8.03;;;3.07;;
21046;SDS011;10682;50.874;3.656;2024-01-15T02:23:07;9.27;;;3.00;;
21046;SDS011;10682;50.874;3.656;2024-01-15T02:25:42;8.83;;;2.70;;
21046;SDS011;10682;50.874;3.656;2024-01-15T02:28:12;9.30;;;3.50;;
21046;SDS011;10682;50.874;3.656;2024-01-15T02:30:42;8.90;;;3.17;;
21046;SDS011;10682;50.874;3.656;2024-01-15T02:33:11;8.43;;;2.70;;
21046;SDS011;10682;50.874;3.656;2024-01-15T02:35:39;9.87;;;3.33;;
21046;SDS011;10682;50.874;3.656;2024-01-15T02:38:06;9.77;;;3.57;;
21046;SDS011;10682;50.874;3.656;2024-01-15T02:40:34;7.97;;;2.90;;
21046;SDS011;10682;50.874;3.656;2024-01-15T02:43:02;6.97;;;2.97;;
21046;SDS011;10682;50.874;3.656;2024-01-15T02:45:32;8.63;;;2.80;;
21046;SDS011;10682;50.874;3.656;2024-01-15T02:48:00;7.13;;;2.90;;
21046;SDS011;10682;50.874;3.656;2024-01-15T02:50:27;6.50;;;2.50;;
21046;SDS011;10682;50.874;3.656;2024-01-15T02:52:54;6.57;;;3.00;;
21046;SDS011;10682;50.874;3.656;2024-01-15T02:55:21;7.00;;;3.00;;
21046;SDS011;10682;50.874;3.656;2024-01-15T02:57:49;3.57;;;2.30;;
21046;SDS011;10682;50.874;3.656;2024-01-15T03:00:16;9.87;;;2.50;;
21046;SDS011;10682;50.874;3.656;2024-01-15T03:02:44;4.63;;;2.77;;
21046;SDS011;10682;50.874;3.656;2024-01-15T03:05:14;11.33;;;2.73;;
21046;SDS011;10682;50.874;3.656;2024-01-15T03:07:41;8.87;;;2.33;;
21046;SDS011;10682;50.874;3.656;2024-01-15T03:10:09;7.17;;;3.00;;
21046;SDS011;10682;50.874;3.656;2024-01-15T03:12:36;9.00;;;2.43;;
21046;SDS011;10682;50.874;3.656;2024-01-15T03:15:03;5.70;;;2.60;;
21046;SDS011;10682;50.874;3.656;2024-01-15T03:17:31;5.50;;;2.27;;
21046;SDS011;10682;50.874;3.656;2024-01-15T03:19:59;6.37;;;2.30;;
21046;SDS011;10682;50.874;3.656;2024-01-15T03:22:27;6.80;;;2.67;;
21046;SDS011;10682;50.874;3.656;2024-01-15T03:24:54;6.77;;;1.90;;
21046;SDS011;10682;50.874;3.656;2024-01-15T03:27:23;7.70;;;2.13;;
21046;SDS011;10682;50.874;3.656;2024-01-15T03:29:52;5.60;;;1.90;;
21046;SDS011;10682;50.874;3.656;2024-01-15T03:32:19;8.40;;;1.90;;
21046;SDS011;10682;50.874;3.656;2024-01-15T03:34:49;9.00;;;2.37;;
21046;SDS011;10682;50.874;3.656;2024-01-15T03:37:18;8.93;;;1.80;;
21046;SDS011;10682;50.874;3.656;2024-01-15T03:39:46;8.83;;;1.80;;
21046;SDS011;10682;50.874;3.656;2024-01-15T03:42:13;5.70;;;1.70;;
21046;SDS011;10682;50.874;3.656;2024-01-15T03:44:40;9.73;;;2.10;;
21046;SDS011;10682;50.874;3.656;2024-01-15T03:47:08;6.97;;;2.30;;
21046;SDS011;10682;50.874;3.656;2024-01-15T03:49:36;8.87;;;2.37;;
21046;SDS011;10682;50.874;3.656;2024-01-15T03:55:14;8.00;;;2.53;;
21046;SDS011;10682;50.874;3.656;2024-01-15T03:57:59;11.33;;;2.50;;
21046;SDS011;10682;50.874;3.656;2024-01-15T04:00:26;6.70;;;2.37;;
21046;SDS011;10682;50.874;3.656;2024-01-15T04:02:53;10.23;;;2.50;;
21046;SDS011;10682;50.874;3.656;2024-01-15T04:05:20;6.37;;;2.07;;
21046;SDS011;10682;50.874;3.656;2024-01-15T04:07:47;4.90;;;2.10;;
21046;SDS011;10682;50.874;3.656;2024-01-15T04:10:14;5.63;;;2.00;;
21046;SDS011;10682;50.874;3.656;2024-01-15T04:12:44;3.30;;;1.63;;
21046;SDS011;10682;50.874;3.656;2024-01-15T04:15:14;7.33;;;1.67;;
21046;SDS011;10682;50.874;3.656;2024-01-15T04:17:41;8.73;;;1.70;;
21046;SDS011;10682;50.874;3.656;2024-01-15T04:20:09;5.07;;;1.60;;
21046;SDS011;10682;50.874;3.656;2024-01-15T04:22:37;3.03;;;1.20;;
21046;SDS011;10682;50.874;3.656;2024-01-15T04:25:04;6.63;;;1.10;;
21046;SDS011;10682;50.874;3.656;2024-01-15T04:27:32;7.13;;;1.47;;
21046;SDS011;10682;50.874;3.656;2024-01-15T04:29:59;5.33;;;0.93;;
21046;SDS011;10682;50.874;3.656;2024-01-15T04:32:26;3.53;;;1.10;;
21046;SDS011;10682;50.874;3.656;2024-01-15T04:34:54;4.67;;;1.20;;
21046;SDS011;10682;50.874;3.656;2024-01-15T04:37:21;11.30;;;2.47;;
21046;SDS011;10682;50.874;3.656;2024-01-15T04:39:48;4.37;;;1.33;;
21046;SDS011;10682;50.874;3.656;2024-01-15T04:42:19;6.90;;;1.33;;
21046;SDS011;10682;50.874;3.656;2024-01-15T04:44:46;6.33;;;1.47;;
21046;SDS011;10682;50.874;3.656;2024-01-15T04:47:13;9.37;;;2.50;;
21046;SDS011;10682;50.874;3.656;2024-01-15T04:49:41;7.73;;;1.60;;
21046;SDS011;10682;50.874;3.656;2024-01-15T04:52:08;3.97;;;1.50;;
21046;SDS011;10682;50.874;3.656;2024-01-15T04:54:36;5.27;;;1.93;;
21046;SDS011;10682;50.874;3.656;2024-01-15T04:57:03;9.53;;;2.00;;
21046;SDS011;10682;50.874;3.656;2024-01-15T04:59:30;7.73;;;1.80;;
21046;SDS011;10682;50.874;3.656;2024-01-15T05:01:57;6.10;;;1.70;;
21046;SDS011;10682;50.874;3.656;2024-01-15T05:04:25;14.93;;;2.30;;
21046;SDS011;10682;50.874;3.656;2024-01-15T05:06:53;7.63;;;1.90;;
21046;SDS011;10682;50.874;3.656;2024-01-15T05:09:21;10.13;;;2.10;;
21046;SDS011;10682;50.874;3.656;2024-01-15T05:11:48;10.23;;;2.47;;
21046;SDS011;10682;50.874;3.656;2024-01-15T05:14:15;8.33;;;2.27;;
21046;SDS011;10682;50.874;3.656;2024-01-15T05:16:47;9.67;;;2.00;;
21046;SDS011;10682;50.874;3.656;2024-01-15T05:19:17;4.37;;;1.40;;
21046;SDS011;10682;50.874;3.656;2024-01-15T05:21:45;4.17;;;1.20;;
21046;SDS011;10682;50.874;3.656;2024-01-15T05:24:12;6.73;;;1.40;;
21046;SDS011;10682;50.874;3.656;2024-01-15T05:26:39;6.10;;;1.20;;
21046;SDS011;10682;50.874;3.656;2024-01-15T05:29:06;3.73;;;1.00;;
21046;SDS011;10682;50.874;3.656;2024-01-15T05:31:33;4.33;;;1.20;;
21046;SDS011;10682;50.874;3.656;2024-01-15T05:34:02;6.40;;;1.30;;
21046;SDS011;10682;50.874;3.656;2024-01-15T05:39:30;3.90;;;1.20;;
21046;SDS011;10682;50.874;3.656;2024-01-15T05:42:09;5.83;;;1.33;;
21046;SDS011;10682;50.874;3.656;2024-01-15T05:44:36;3.13;;;1.33;;
21046;SDS011;10682;50.874;3.656;2024-01-15T05:47:03;7.07;;;1.63;;
21046;SDS011;10682;50.874;3.656;2024-01-15T05:49:31;5.83;;;1.73;;
21046;SDS011;10682;50.874;3.656;2024-01-15T05:51:58;5.17;;;2.20;;
21046;SDS011;10682;50.874;3.656;2024-01-15T05:54:25;6.93;;;2.23;;
21046;SDS011;10682;50.874;3.656;2024-01-15T05:56:52;11.43;;;2.90;;
21046;SDS011;10682;50.874;3.656;2024-01-15T05:59:19;6.23;;;2.00;;
21046;SDS011;10682;50.874;3.656;2024-01-15T06:01:47;7.80;;;2.40;;
21046;SDS011;10682;50.874;3.656;2024-01-15T06:04:14;9.83;;;2.80;;
21046;SDS011;10682;50.874;3.656;2024-01-15T06:06:41;7.93;;;2.87;;
21046;SDS011;10682;50.874;3.656;2024-01-15T06:09:08;7.43;;;2.20;;
21046;SDS011;10682;50.874;3.656;2024-01-15T06:11:36;13.63;;;3.00;;
21046;SDS011;10682;50.874;3.656;2024-01-15T06:14:03;6.50;;;2.50;;
21046;SDS011;10682;50.874;3.656;2024-01-15T06:16:30;6.07;;;2.60;;
21046;SDS011;10682;50.874;3.656;2024-01-15T06:18:57;9.80;;;3.20;;
21046;SDS011;10682;50.874;3.656;2024-01-15T06:21:24;7.57;;;3.03;;
21046;SDS011;10682;50.874;3.656;2024-01-15T06:23:51;15.17;;;2.77;;
21046;SDS011;10682;50.874;3.656;2024-01-15T06:26:19;12.43;;;3.40;;
21046;SDS011;10682;50.874;3.656;2024-01-15T06:28:46;9.33;;;3.20;;
21046;SDS011;10682;50.874;3.656;2024-01-15T06:31:13;9.57;;;2.80;;
21046;SDS011;10682;50.874;3.656;2024-01-15T06:33:40;13.57;;;3.00;;
21046;SDS011;10682;50.874;3.656;2024-01-15T06:36:08;8.73;;;3.00;;
21046;SDS011;10682;50.874;3.656;2024-01-15T06:38:35;9.13;;;3.50;;
21046;SDS011;10682;50.874;3.656;2024-01-15T06:41:02;11.47;;;3.53;;
21046;SDS011;10682;50.874;3.656;2024-01-15T06:43:30;11.90;;;3.30;;
21046;SDS011;10682;50.874;3.656;2024-01-15T06:45:57;12.73;;;3.27;;
21046;SDS011;10682;50.874;3.656;2024-01-15T06:48:24;10.70;;;3.00;;
21046;SDS011;10682;50.874;3.656;2024-01-15T06:50:51;10.77;;;2.77;;
21046;SDS011;10682;50.874;3.656;2024-01-15T06:53:19;11.37;;;3.00;;
21046;SDS011;10682;50.874;3.656;2024-01-15T06:55:47;9.93;;;2.97;;
21046;SDS011;10682;50.874;3.656;2024-01-15T06:58:15;10.83;;;2.80;;
21046;SDS011;10682;50.874;3.656;2024-01-15T07:00:42;7.43;;;2.37;;
21046;SDS011;10682;50.874;3.656;2024-01-15T07:03:09;7.50;;;2.63;;
21046;SDS011;10682;50.874;3.656;2024-01-15T07:05:37;10.00;;;3.40;;
21046;SDS011;10682;50.874;3.656;2024-01-15T07:08:04;12.90;;;4.63;;
21046;SDS011;10682;50.874;3.656;2024-01-15T07:10:31;8.73;;;3.43;;
21046;SDS011;10682;50.874;3.656;2024-01-15T07:13:02;11.50;;;2.33;;
21046;SDS011;10682;50.874;3.656;2024-01-15T07:15:31;7.73;;;2.13;;
21046;SDS011;10682;50.874;3.656;2024-01-15T07:17:59;10.37;;;2.33;;
21046;SDS011;10682;50.874;3.656;2024-01-15T07:20:26;8.93;;;1.97;;
21046;SDS011;10682;50.874;3.656;2024-01-15T07:28:52;9.30;;;1.80;;
21046;SDS011;10682;50.874;3.656;2024-01-15T07:31:19;8.53;;;1.80;;
21046;SDS011;10682;50.874;3.656;2024-01-15T07:33:46;7.13;;;1.63;;
21046;SDS011;10682;50.874;3.656;2024-01-15T07:36:14;5.90;;;1.70;;
21046;SDS011;10682;50.874;3.656;2024-01-15T07:38:42;11.37;;;2.03;;
21046;SDS011;10682;50.874;3.656;2024-01-15T07:41:09;7.83;;;1.90;;
21046;SDS011;10682;50.874;3.656;2024-01-15T07:43:36;13.37;;;1.77;;
21046;SDS011;10682;50.874;3.656;2024-01-15T07:46:05;13.93;;;2.10;;
21046;SDS011;10682;50.874;3.656;2024-01-15T07:48:33;6.17;;;1.50;;
21046;SDS011;10682;50.874;3.656;2024-01-15T07:51:01;7.33;;;1.80;;
21046;SDS011;10682;50.874;3.656;2024-01-15T07:53:28;7.73;;;1.83;;
21046;SDS011;10682;50.874;3.656;2024-01-15T07:55:55;7.60;;;1.90;;
21046;SDS011;10682;50.874;3.656;2024-01-15T07:58:22;6.30;;;1.57;;
21046;SDS011;10682;50.874;3.656;2024-01-15T08:00:49;6.17;;;1.70;;
21046;SDS011;10682;50.874;3.656;2024-01-15T08:03:16;9.17;;;1.90;;
21046;SDS011;10682;50.874;3.656;2024-01-15T08:05:43;4.67;;;1.50;;
21046;SDS011;10682;50.874;3.656;2024-01-15T08:08:10;6.77;;;1.90;;
21046;SDS011;10682;50.874;3.656;2024-01-15T08:10:37;12.30;;;1.57;;
21046;SDS011;10682;50.874;3.656;2024-01-15T08:13:05;9.20;;;2.60;;
21046;SDS011;10682;50.874;3.656;2024-01-15T08:15:34;6.23;;;1.50;;
21046;SDS011;10682;50.874;3.656;2024-01-15T08:18:01;10.47;;;1.83;;
21046;SDS011;10682;50.874;3.656;2024-01-15T08:20:29;5.40;;;1.53;;
21046;SDS011;10682;50.874;3.656;2024-01-15T08:22:57;5.47;;;1.60;;
21046;SDS011;10682;50.874;3.656;2024-01-15T08:25:24;13.27;;;1.87;;
21046;SDS011;10682;50.874;3.656;2024-01-15T08:27:53;9.63;;;1.60;;
21046;SDS011;10682;50.874;3.656;2024-01-15T08:30:20;9.00;;;1.63;;
21046;SDS011;10682;50.874;3.656;2024-01-15T08:32:51;7.03;;;2.03;;
21046;SDS011;10682;50.874;3.656;2024-01-15T08:35:18;11.43;;;1.47;;
21046;SDS011;10682;50.874;3.656;2024-01-15T08:37:49;7.00;;;1.50;;
21046;SDS011;10682;50.874;3.656;2024-01-15T08:40:16;8.87;;;1.60;;
21046;SDS011;10682;50.874;3.656;2024-01-15T08:42:44;6.93;;;2.03;;
21046;SDS011;10682;50.874;3.656;2024-01-15T08:45:14;7.20;;;1.80;;
21046;SDS011;10682;50.874;3.656;2024-01-15T08:47:42;5.87;;;1.60;;
21046;SDS011;10682;50.874;3.656;2024-01-15T08:50:09;6.80;;;1.33;;
21046;SDS011;10682;50.874;3.656;2024-01-15T08:52:37;5.50;;;1.87;;
21046;SDS011;10682;50.874;3.656;2024-01-15T08:55:04;9.43;;;1.87;;
21046;SDS011;10682;50.874;3.656;2024-01-15T08:57:31;12.50;;;1.90;;
21046;SDS011;10682;50.874;3.656;2024-01-15T08:59:58;12.37;;;2.30;;
21046;SDS011;10682;50.874;3.656;2024-01-15T09:02:25;6.67;;;1.53;;
21046;SDS011;10682;50.874;3.656;2024-01-15T09:04:53;7.77;;;1.73;;
21046;SDS011;10682;50.874;3.656;2024-01-15T09:07:34;9.40;;;1.70;;
21046;SDS011;10682;50.874;3.656;2024-01-15T09:13:13;5.17;;;1.40;;
21046;SDS011;10682;50.874;3.656;2024-01-15T09:15:40;9.37;;;1.77;;
21046;SDS011;10682;50.874;3.656;2024-01-15T09:18:09;10.60;;;1.60;;
21046;SDS011;10682;50.874;3.656;2024-01-15T09:20:36;8.53;;;1.87;;
21046;SDS011;10682;50.874;3.656;2024-01-15T09:23:04;10.80;;;1.77;;
21046;SDS011;10682;50.874;3.656;2024-01-15T09:25:32;6.57;;;1.43;;
21046;SDS011;10682;50.874;3.656;2024-01-15T09:27:59;10.73;;;2.20;;
21046;SDS011;10682;50.874;3.656;2024-01-15T09:30:26;7.73;;;1.47;;
21046;SDS011;10682;50.874;3.656;2024-01-15T09:32:53;8.50;;;1.73;;
21046;SDS011;10682;50.874;3.656;2024-01-15T09:35:20;8.30;;;2.17;;
21046;SDS011;10682;50.874;3.656;2024-01-15T09:37:50;6.83;;;1.30;;
21046;SDS011;10682;50.874;3.656;2024-01-15T09:40:17;6.23;;;1.33;;
21046;SDS011;10682;50.874;3.656;2024-01-15T09:42:46;5.53;;;1.43;;
21046;SDS011;10682;50.874;3.656;2024-01-15T09:45:14;5.43;;;1.40;;
21046;SDS011;10682;50.874;3.656;2024-01-15T09:47:41;9.70;;;1.60;;
21046;SDS011;10682;50.874;3.656;2024-01-15T09:50:12;3.30;;;1.20;;
21046;SDS011;10682;50.874;3.656;2024-01-15T09:52:42;6.30;;;1.40;;
21046;SDS011;10682;50.874;3.656;2024-01-15T09:55:11;10.60;;;1.50;;
21046;SDS011;10682;50.874;3.656;2024-01-15T09:57:39;10.80;;;1.50;;
21046;SDS011;10682;50.874;3.656;2024-01-15T10:00:07;6.03;;;1.50;;
21046;SDS011;10682;50.874;3.656;2024-01-15T10:02:37;10.47;;;1.50;;
21046;SDS011;10682;50.874;3.656;2024-01-15T10:05:04;12.93;;;2.07;;
21046;SDS011;10682;50.874;3.656;2024-01-15T10:07:33;7.30;;;1.37;;
21046;SDS011;10682;50.874;3.656;2024-01-15T10:10:03;4.47;;;1.30;;
21046;SDS011;10682;50.874;3.656;2024-01-15T10:12:32;4.90;;;1.60;;
21046;SDS011;10682;50.874;3.656;2024-01-15T10:14:59;5.87;;;1.50;;
21046;SDS011;10682;50.874;3.656;2024-01-15T10:17:27;6.37;;;1.57;;
21046;SDS011;10682;50.874;3.656;2024-01-15T10:19:55;8.60;;;1.67;;
21046;SDS011;10682;50.874;3.656;2024-01-15T10:22:22;5.90;;;1.53;;
21046;SDS011;10682;50.874;3.656;2024-01-15T10:24:49;10.77;;;1.80;;
21046;SDS011;10682;50.874;3.656;2024-01-15T10:27:17;4.43;;;1.20;;
21046;SDS011;10682;50.874;3.656;2024-01-15T10:29:45;9.67;;;1.50;;
21046;SDS011;10682;50.874;3.656;2024-01-15T10:32:12;5.13;;;1.20;;
21046;SDS011;10682;50.874;3.656;2024-01-15T10:34:42;7.70;;;1.20;;
21046;SDS011;10682;50.874;3.656;2024-01-15T10:37:10;4.77;;;1.43;;
21046;SDS011;10682;50.874;3.656;2024-01-15T10:39:37;5.20;;;1.90;;
21046;SDS011;10682;50.874;3.656;2024-01-15T10:42:05;6.97;;;1.70;;
21046;SDS011;10682;50.874;3.656;2024-01-15T10:44:33;12.87;;;1.70;;
21046;SDS011;10682;50.874;3.656;2024-01-15T10:47:02;8.73;;;1.50;;
21046;SDS011;10682;50.874;3.656;2024-01-15T10:49:30;4.63;;;1.30;;
21046;SDS011;10682;50.874;3.656;2024-01-15T10:57:50;14.20;;;1.70;;
21046;SDS011;10682;50.874;3.656;2024-01-15T11:00:19;4.07;;;1.20;;
21046;SDS011;10682;50.874;3.656;2024-01-15T11:02:47;7.13;;;1.47;;
21046;SDS011;10682;50.874;3.656;2024-01-15T11:05:14;11.27;;;1.40;;
21046;SDS011;10682;50.874;3.656;2024-01-15T11:07:43;6.87;;;1.20;;
21046;SDS011;10682;50.874;3.656;2024-01-15T11:10:37;5.90;;;1.00;;
21046;SDS011;10682;50.874;3.656;2024-01-15T11:13:08;5.13;;;1.13;;
21046;SDS011;10682;50.874;3.656;2024-01-15T11:19:01;12.03;;;1.53;;
21046;SDS011;10682;50.874;3.656;2024-01-15T11:21:25;7.87;;;1.40;;
21046;SDS011;10682;50.874;3.656;2024-01-15T11:26:38;9.83;;;1.20;;
21046;SDS011;10682;50.874;3.656;2024-01-15T11:31:57;10.03;;;1.30;;
21046;SDS011;10682;50.874;3.656;2024-01-15T11:34:53;5.40;;;1.17;;
21046;SDS011;10682;50.874;3.656;2024-01-15T11:37:29;7.53;;;1.30;;
21046;SDS011;10682;50.874;3.656;2024-01-15T11:40:22;5.57;;;1.20;;
21046;SDS011;10682;50.874;3.656;2024-01-15T11:43:04;12.27;;;1.67;;
21046;SDS011;10682;50.874;3.656;2024-01-15T11:45:36;10.33;;;1.27;;
21046;SDS011;10682;50.874;3.656;2024-01-15T11:48:11;9.07;;;1.37;;
21046;SDS011;10682;50.874;3.656;2024-01-15T11:50:42;6.07;;;1.40;;
21046;SDS011;10682;50.874;3.656;2024-01-15T11:55:57;12.30;;;1.43;;
21046;SDS011;10682;50.874;3.656;2024-01-15T11:58:26;8.40;;;1.40;;
21046;SDS011;10682;50.874;3.656;2024-01-15T12:00:53;7.73;;;1.27;;
21046;SDS011;10682;50.874;3.656;2024-01-15T12:03:22;6.37;;;1.20;;
21046;SDS011;10682;50.874;3.656;2024-01-15T12:05:51;10.50;;;2.90;;
21046;SDS011;10682;50.874;3.656;2024-01-15T12:08:24;4.30;;;1.30;;
21046;SDS011;10682;50.874;3.656;2024-01-15T12:10:53;10.43;;;5.37;;
21046;SDS011;10682;50.874;3.656;2024-01-15T12:13:20;7.80;;;1.80;;
21046;SDS011;10682;50.874;3.656;2024-01-15T12:15:47;5.13;;;1.30;;
21046;SDS011;10682;50.874;3.656;2024-01-15T12:18:16;10.23;;;1.07;;
21046;SDS011;10682;50.874;3.656;2024-01-15T12:20:45;11.80;;;1.30;;
21046;SDS011;10682;50.874;3.656;2024-01-15T12:23:14;17.33;;;1.60;;
21046;SDS011;10682;50.874;3.656;2024-01-15T12:25:41;13.00;;;1.50;;
21046;SDS011;10682;50.874;3.656;2024-01-15T12:28:09;11.60;;;1.43;;
21046;SDS011;10682;50.874;3.656;2024-01-15T12:30:36;7.03;;;1.73;;
21046;SDS011;10682;50.874;3.656;2024-01-15T12:33:04;10.30;;;1.80;;
21046;SDS011;10682;50.874;3.656;2024-01-15T12:35:35;11.10;;;1.57;;
21046;SDS011;10682;50.874;3.656;2024-01-15T12:41:39;13.60;;;1.83;;
21046;SDS011;10682;50.874;3.656;2024-01-15T12:44:20;7.50;;;1.60;;
21046;SDS011;10682;50.874;3.656;2024-01-15T12:46:47;7.13;;;1.30;;
21046;SDS011;10682;50.874;3.656;2024-01-15T12:49:14;9.33;;;1.37;;
21046;SDS011;10682;50.874;3.656;2024-01-15T12:51:42;10.33;;;1.63;;
21046;SDS011;10682;50.874;3.656;2024-01-15T12:54:09;6.03;;;1.20;;
21046;SDS011;10682;50.874;3.656;2024-01-15T12:56:36;7.87;;;1.50;;
21046;SDS011;10682;50.874;3.656;2024-01-15T12:59:03;10.47;;;2.10;;
21046;SDS011;10682;50.874;3.656;2024-01-15T13:01:30;11.63;;;1.60;;
21046;SDS011;10682;50.874;3.656;2024-01-15T13:03:58;13.23;;;1.83;;
21046;SDS011;10682;50.874;3.656;2024-01-15T13:06:26;9.90;;;1.60;;
21046;SDS011;10682;50.874;3.656;2024-01-15T13:08:54;13.60;;;1.63;;
21046;SDS011;10682;50.874;3.656;2024-01-15T13:11:21;9.77;;;1.73;;
21046;SDS011;10682;50.874;3.656;2024-01-15T13:13:48;12.33;;;1.53;;
21046;SDS011;10682;50.874;3.656;2024-01-15T13:16:15;11.67;;;1.60;;
21046;SDS011;10682;50.874;3.656;2024-01-15T13:18:42;9.30;;;1.67;;
21046;SDS011;10682;50.874;3.656;2024-01-15T13:21:09;7.53;;;1.60;;
21046;SDS011;10682;50.874;3.656;2024-01-15T13:23:36;7.00;;;2.00;;
21046;SDS011;10682;50.874;3.656;2024-01-15T13:26:04;7.93;;;1.37;;
21046;SDS011;10682;50.874;3.656;2024-01-15T13:28:31;9.23;;;1.50;;
21046;SDS011;10682;50.874;3.656;2024-01-15T13:30:58;6.97;;;1.30;;
21046;SDS011;10682;50.874;3.656;2024-01-15T13:33:26;7.70;;;1.93;;
21046;SDS011;10682;50.874;3.656;2024-01-15T13:35:53;11.77;;;1.70;;
21046;SDS011;10682;50.874;3.656;2024-01-15T13:38:20;9.57;;;3.07;;
21046;SDS011;10682;50.874;3.656;2024-01-15T13:40:47;8.53;;;1.93;;
21046;SDS011;10682;50.874;3.656;2024-01-15T13:43:14;19.33;;;1.90;;
21046;SDS011;10682;50.874;3.656;2024-01-15T13:45:41;10.87;;;1.60;;
21046;SDS011;10682;50.874;3.656;2024-01-15T13:48:08;9.90;;;1.67;;
21046;SDS011;10682;50.874;3.656;2024-01-15T13:50:36;16.23;;;2.53;;
21046;SDS011;10682;50.874;3.656;2024-01-15T13:53:03;5.03;;;1.70;;
21046;SDS011;10682;50.874;3.656;2024-01-15T13:55:31;11.70;;;1.73;;
21046;SDS011;10682;50.874;3.656;2024-01-15T13:57:59;9.43;;;1.60;;
21046;SDS011;10682;50.874;3.656;2024-01-15T14:00:26;10.80;;;1.50;;
21046;SDS011;10682;50.874;3.656;2024-01-15T14:02:53;7.47;;;1.40;;
21046;SDS011;10682;50.874;3.656;2024-01-15T14:05:20;9.13;;;1.13;;
21046;SDS011;10682;50.874;3.656;2024-01-15T14:07:47;8.97;;;1.17;;
21046;SDS011;10682;50.874;3.656;2024-01-15T14:10:15;7.00;;;1.17;;
21046;SDS011;10682;50.874;3.656;2024-01-15T14:12:42;5.53;;;1.17;;
21046;SDS011;10682;50.874;3.656;2024-01-15T14:15:10;10.73;;;1.47;;
21046;SDS011;10682;50.874;3.656;2024-01-15T14:17:37;6.40;;;1.40;;
21046;SDS011;10682;50.874;3.656;2024-01-15T14:20:05;8.63;;;1.50;;
21046;SDS011;10682;50.874;3.656;2024-01-15T14:25:39;7.77;;;1.90;;
21046;SDS011;10682;50.874;3.656;2024-01-15T14:28:19;9.07;;;1.80;;
21046;SDS011;10682;50.874;3.656;2024-01-15T14:30:46;11.93;;;2.03;;
21046;SDS011;10682;50.874;3.656;2024-01-15T14:33:13;10.57;;;2.83;;
21046;SDS011;10682;50.874;3.656;2024-01-15T14:35:40;8.53;;;1.70;;
21046;SDS011;10682;50.874;3.656;2024-01-15T14:38:07;15.00;;;4.60;;
21046;SDS011;10682;50.874;3.656;2024-01-15T14:40:35;10.00;;;1.80;;
21046;SDS011;10682;50.874;3.656;2024-01-15T14:43:03;12.00;;;2.60;;
21046;SDS011;10682;50.874;3.656;2024-01-15T14:45:30;11.77;;;2.40;;
21046;SDS011;10682;50.874;3.656;2024-01-15T14:47:58;8.80;;;1.70;;
21046;SDS011;10682;50.874;3.656;2024-01-15T14:50:25;9.87;;;1.53;;
21046;SDS011;10682;50.874;3.656;2024-01-15T14:52:52;13.87;;;2.43;;
21046;SDS011;10682;50.874;3.656;2024-01-15T14:55:20;10.23;;;1.60;;
21046;SDS011;10682;50.874;3.656;2024-01-15T14:57:49;5.07;;;1.40;;
21046;SDS011;10682;50.874;3.656;2024-01-15T15:00:17;11.57;;;1.60;;
21046;SDS011;10682;50.874;3.656;2024-01-15T15:02:44;10.43;;;1.93;;
21046;SDS011;10682;50.874;3.656;2024-01-15T15:05:11;14.40;;;2.10;;
21046;SDS011;10682;50.874;3.656;2024-01-15T15:07:41;11.40;;;1.90;;
21046;SDS011;10682;50.874;3.656;2024-01-15T15:10:08;11.93;;;1.97;;
21046;SDS011;10682;50.874;3.656;2024-01-15T15:12:37;14.00;;;2.23;;
21046;SDS011;10682;50.874;3.656;2024-01-15T15:15:04;10.50;;;2.00;;
21046;SDS011;10682;50.874;3.656;2024-01-15T15:17:37;14.00;;;2.87;;
21046;SDS011;10682;50.874;3.656;2024-01-15T15:20:08;16.90;;;2.57;;
21046;SDS011;10682;50.874;3.656;2024-01-15T15:22:36;12.20;;;2.60;;
21046;SDS011;10682;50.874;3.656;2024-01-15T15:25:03;14.40;;;3.77;;
21046;SDS011;10682;50.874;3.656;2024-01-15T15:27:35;12.37;;;2.20;;
21046;SDS011;10682;50.874;3.656;2024-01-15T15:30:02;9.50;;;1.70;;
21046;SDS011;10682;50.874;3.656;2024-01-15T15:32:30;7.57;;;2.60;;
21046;SDS011;10682;50.874;3.656;2024-01-15T15:34:57;11.77;;;1.80;;
21046;SDS011;10682;50.874;3.656;2024-01-15T15:37:25;12.23;;;2.03;;